Date,TemperatureHighF,TemperatureAvgF,TemperatureLowF,DewpointHighF,DewpointAvgF,DewpointLowF,HumidityHigh,HumidityAvg,HumidityLow,PressureMaxIn,PressureMinIn,WindSpeedMaxMPH,WindSpeedAvgMPH,GustSpeedMaxMPH,PrecipitationSumIn
2013-8-1,85,79,74,73,71,70,89,77,64,30.11,30.02,16,8,20,0.03
2013-8-2,86,79,75,74,72,70,88,78,66,30.07,29.99,13,7,17,0.04
2013-8-3,87,80,76,73,71,69,84,76,61,30.05,29.98,14,7,17,0.00
2013-8-4,87,80,76,74,72,70,85,76,62,30.04,29.96,12,6,19,0.00
2013-8-5,87,80,77,75,73,71,86,78,66,30.04,29.96,11,6,16,0.00
2013-8-6,88,80,76,74,71,70,83,74,60,30.04,29.98,13,6,14,0.00
2013-8-7,87,80,76,73,71,69,81,73,61,30.06,30.00,12,6,15,0.00
2013-8-8,87,80,76,73,71,69,81,74,63,30.08,30.00,12,6,14,0.00
2013-8-9,88,79,73,75,72,69,94,79,62,30.07,29.97,12,5,23,0.35
2013-8-10,82,75,72,76,73,71,98,94,80,30.06,29.98,15,6,17,1.05
2013-8-11,85,80,77,77,74,72,93,82,74,30.06,30.01,11,6,16,0.04
2013-8-12,85,80,76,74,72,70,90,77,66,30.09,30.02,12,6,17,0.00
2013-8-13,82,78,75,75,72,69,89,81,71,30.07,29.97,14,6,20,0.08
2013-8-14,85,80,76,73,71,70,84,76,62,30.04,29.96,14,7,21,0.00
2013-8-15,84,79,76,75,71,69,87,77,67,30.05,29.98,18,7,19,0.00
2013-8-16,85,79,73,75,72,69,89,78,70,30.06,29.98,19,8,26,0.02
2013-8-17,86,80,76,72,70,69,81,73,60,30.05,29.97,14,7,18,0.00
2013-8-18,86,80,76,75,71,69,84,76,64,30.04,29.97,11,6,17,0.00
2013-8-19,87,80,76,72,71,69,88,74,58,30.03,29.95,10,4,12,0.00
2013-8-20,86,80,75,75,73,71,87,79,66,30.00,29.92,11,5,16,0.00
2013-8-21,87,79,72,76,73,71,96,82,68,29.98,29.90,10,4,14,0.15
2013-8-22,87,81,77,76,74,72,88,78,64,30.00,29.91,8,5,12,0.00
2013-8-23,86,80,76,75,73,71,89,79,65,30.01,29.93,13,5,16,0.01
2013-8-24,85,80,76,74,72,69,87,77,68,30.05,29.95,12,7,21,0.00
2013-8-25,86,80,77,74,72,70,81,75,65,30.09,30.01,11,7,17,0.00
2013-8-26,86,80,77,74,72,70,82,74,63,30.11,30.04,15,8,18,0.00
2013-8-27,87,80,77,72,70,68,80,71,57,30.11,30.01,16,6,17,0.00
2013-8-28,86,80,75,75,72,69,85,77,61,30.04,29.91,10,4,12,0.00
2013-8-29,86,79,72,76,73,70,96,82,67,29.96,29.89,10,4,17,0.31
2013-8-30,87,80,77,74,72,71,84,77,62,30.04,29.93,12,5,13,0.00
2013-8-31,86,80,77,74,72,70,84,77,65,30.06,29.96,14,7,18,0.00